Time;durP1;ratioP1;P1;durP2;ratioP2;P2;SDS_P1;SDS_P2;PMS_P1;PMS_P2;Temp;Humidity;BMP_temperature;BMP_pressure;BME280_temperature;BME280_humidity;BME280_pressure;Samples;Min_cycle;Max_cycle;Signal;HPM_P1;HPM_P2
2023/03/23 00:01:36;;;;;;;9.93;7.60;;;11.10;99.90;;;;;;4922988;28;90459;-30
2023/03/23 00:04:02;;;;;;;9.40;8.02;;;11.10;99.90;;;;;;4922595;28;90079;-33
2023/03/23 00:06:34;;;;;;;9.80;6.68;;;11.10;99.90;;;;;;4923254;28;89541;-29
2023/03/23 00:09:01;;;;;;;9.80;8.77;;;11.10;99.90;;;;;;4920955;28;90457;-31
2023/03/23 00:11:30;;;;;;;11.25;8.43;;;11.10;99.90;;;;;;4922361;28;90072;-33
2023/03/23 00:14:00;;;;;;;12.50;8.93;;;11.10;99.90;;;;;;4922472;28;89936;-30
2023/03/23 00:16:30;;;;;;;12.02;8.13;;;11.20;99.90;;;;;;4921206;28;89378;-31
2023/03/23 00:18:57;;;;;;;12.20;9.52;;;11.20;99.90;;;;;;4922624;28;89168;-31
2023/03/23 00:21:33;;;;;;;10.73;8.30;;;11.20;99.90;;;;;;4922510;28;90312;-32
2023/03/23 00:24:10;;;;;;;9.10;7.60;;;11.10;99.90;;;;;;4921753;28;89463;-31
2023/03/23 00:26:40;;;;;;;8.90;8.10;;;11.10;99.90;;;;;;4922347;28;89503;-32
2023/03/23 00:29:26;;;;;;;9.50;8.15;;;11.20;99.90;;;;;;4922645;28;89990;-33
2023/03/23 00:31:52;;;;;;;11.32;7.57;;;11.10;99.90;;;;;;4921419;28;89849;-28
2023/03/23 00:34:21;;;;;;;9.98;7.60;;;11.10;99.90;;;;;;4921561;28;90416;-30
2023/03/23 00:36:47;;;;;;;;;;;11.10;99.90;;;;;;4922032;28;90497;-29
2023/03/23 00:39:15;;;;;;;8.55;7.68;;;11.10;99.90;;;;;;4923626;28;88793;-31
2023/03/23 00:41:44;;;;;;;10.68;7.68;;;11.10;99.90;;;;;;4922629;28;90114;-29
2023/03/23 00:44:16;;;;;;;9.80;7.03;;;11.10;99.90;;;;;;4922062;28;89767;-30
2023/03/23 00:46:46;;;;;;;8.93;7.50;;;11.10;99.90;;;;;;4921470;28;89000;-30
2023/03/23 00:49:18;;;;;;;8.68;7.68;;;11.10;99.90;;;;;;4921806;28;89479;-34
2023/03/23 00:51:44;;;;;;;11.10;7.72;;;11.20;99.90;;;;;;4920020;28;90240;-33
2023/03/23 00:54:10;;;;;;;13.73;7.57;;;11.10;99.90;;;;;;4921868;28;89285;-33
2023/03/23 00:56:37;;;;;;;12.85;8.80;;;11.10;99.90;;;;;;4921680;28;90921;-30
2023/03/23 00:59:03;;;;;;;11.48;7.35;;;11.10;99.90;;;;;;4920911;28;89964;-29
2023/03/23 01:01:29;;;;;;;10.45;6.78;;;11.10;99.90;;;;;;4921942;28;89583;-32
2023/03/23 01:04:00;;;;;;;9.10;7.60;;;11.10;99.90;;;;;;4920724;28;89765;-33
2023/03/23 01:06:28;;;;;;;8.95;6.15;;;11.10;99.90;;;;;;4921911;28;89734;-28
2023/03/23 01:08:53;;;;;;;6.37;5.70;;;11.20;99.90;;;;;;4921609;28;88148;-30
2023/03/23 01:11:20;;;;;;;9.23;6.72;;;11.10;99.90;;;;;;4921606;28;90383;-29
2023/03/23 01:13:46;;;;;;;14.30;6.47;;;11.10;99.90;;;;;;4921595;28;90199;-30
2023/03/23 01:16:12;;;;;;;6.85;6.18;;;11.10;99.90;;;;;;4921661;28;89306;-30
2023/03/23 01:18:39;;;;;;;7.03;5.70;;;11.10;99.90;;;;;;4921564;28;89117;-30
2023/03/23 01:21:10;;;;;;;10.70;6.28;;;11.20;99.90;;;;;;4921508;28;90479;-29
2023/03/23 01:23:37;;;;;;;4.97;4.15;;;11.10;99.90;;;;;;4921325;28;91846;-30
2023/03/23 01:26:08;;;;;;;7.63;4.85;;;11.10;99.90;;;;;;4921304;28;89991;-33
2023/03/23 01:28:35;;;;;;;4.60;4.00;;;11.20;99.90;;;;;;4906475;28;89357;-28
2023/03/23 01:31:07;;;;;;;6.60;4.38;;;11.20;99.90;;;;;;4901508;28;89690;-31
2023/03/23 01:33:33;;;;;;;5.03;3.78;;;11.20;99.90;;;;;;4901966;28;90155;-31
2023/03/23 01:36:08;;;;;;;5.50;4.57;;;11.20;99.90;;;;;;4900838;28;89143;-30
2023/03/23 01:38:35;;;;;;;4.50;4.07;;;11.20;99.90;;;;;;4902041;28;89043;-32
2023/03/23 01:41:01;;;;;;;6.72;3.92;;;11.10;99.90;;;;;;4901905;28;90391;-30
2023/03/23 01:43:27;;;;;;;8.57;3.70;;;11.10;99.90;;;;;;4901388;28;89534;-31
2023/03/23 01:45:53;;;;;;;10.95;5.28;;;11.10;99.90;;;;;;4901815;28;89815;-29
2023/03/23 01:48:31;;;;;;;7.40;4.88;;;11.20;99.90;;;;;;4901379;28;90515;-29
2023/03/23 01:51:06;;;;;;;6.80;4.93;;;11.20;99.90;;;;;;4901259;28;90262;-31
2023/03/23 01:53:38;;;;;;;6.35;5.30;;;11.20;99.90;;;;;;4901462;28;90448;-30
2023/03/23 01:56:06;;;;;;;9.65;6.18;;;11.20;99.90;;;;;;4901314;28;90655;-29
2023/03/23 01:58:36;;;;;;;7.18;6.47;;;11.20;99.90;;;;;;4901516;28;89079;-32
2023/03/23 02:01:11;;;;;;;13.30;5.43;;;11.20;99.90;;;;;;4901146;28;90241;-31
2023/03/23 02:03:38;;;;;;;8.18;4.65;;;11.20;99.90;;;;;;4901760;28;90911;-30
2023/03/23 02:06:05;;;;;;;7.53;5.77;;;11.20;99.90;;;;;;4901504;28;90154;-29
2023/03/23 02:08:32;;;;;;;10.27;5.72;;;11.20;99.90;;;;;;4901683;28;89978;-30
2023/03/23 02:10:59;;;;;;;6.10;4.77;;;11.20;99.90;;;;;;4901435;28;89911;-30
2023/03/23 02:13:26;;;;;;;7.10;4.43;;;11.20;99.90;;;;;;4900663;28;90215;-28
2023/03/23 02:16:18;;;;;;;6.90;5.13;;;11.20;99.90;;;;;;4901205;28;90577;-30
2023/03/23 02:18:52;;;;;;;4.95;3.85;;;11.20;99.90;;;;;;4901763;28;88166;-29
2023/03/23 02:21:34;;;;;;;9.95;5.07;;;11.20;99.90;;;;;;4901009;28;90064;-31
2023/03/23 02:24:18;;;;;;;10.98;5.63;;;11.20;99.90;;;;;;4900595;28;90520;-31
2023/03/23 02:27:13;;;;;;;7.45;4.60;;;11.20;99.90;;;;;;4900745;28;89509;-31
2023/03/23 02:30:07;;;;;;;4.75;4.13;;;11.20;99.90;;;;;;4902076;28;89855;-29
2023/03/23 02:32:42;;;;;;;5.55;4.38;;;11.20;99.90;;;;;;4901067;28;89662;-30
2023/03/23 02:35:18;;;;;;;5.47;4.40;;;11.10;99.90;;;;;;4901277;28;89068;-29
2023/03/23 02:37:51;;;;;;;6.38;4.15;;;11.20;99.90;;;;;;4901147;28;88507;-30
2023/03/23 02:40:28;;;;;;;7.00;5.03;;;11.20;99.90;;;;;;4901284;28;88920;-32
2023/03/23 02:42:55;;;;;;;4.90;4.28;;;11.10;99.90;;;;;;4901114;28;89943;-30
2023/03/23 02:45:22;;;;;;;11.70;4.30;;;11.20;99.90;;;;;;4901074;28;89691;-32
2023/03/23 02:47:53;;;;;;;6.07;5.00;;;11.20;99.90;;;;;;4900114;28;89163;-30
2023/03/23 02:50:21;;;;;;;7.55;4.53;;;11.20;99.90;;;;;;4901033;28;88848;-29
2023/03/23 02:52:50;;;;;;;6.30;4.40;;;11.20;99.90;;;;;;4900581;28;89859;-32
2023/03/23 02:55:17;;;;;;;6.10;4.53;;;11.10;99.90;;;;;;4900400;28;88521;-30
2023/03/23 02:57:45;;;;;;;5.57;5.00;;;11.10;99.90;;;;;;4901231;28;89681;-28
2023/03/23 03:00:14;;;;;;;7.78;5.00;;;11.10;99.90;;;;;;4900643;28;89424;-32
2023/03/23 03:02:52;;;;;;;9.50;5.90;;;11.10;99.90;;;;;;4901038;28;90179;-32
2023/03/23 03:05:40;;;;;;;5.53;4.43;;;11.10;99.90;;;;;;4900070;28;90368;-32
2023/03/23 03:08:15;;;;;;;5.00;4.38;;;11.10;99.90;;;;;;4900935;28;90304;-29
2023/03/23 03:10:54;;;;;;;6.72;5.22;;;11.10;99.90;;;;;;4900875;28;87707;-30
2023/03/23 03:13:50;;;;;;;5.15;4.25;;;11.10;99.90;;;;;;4900637;28;89470;-31
2023/03/23 03:16:58;;;;;;;4.63;4.22;;;11.20;99.90;;;;;;4901589;28;89785;-33
2023/03/23 03:19:32;;;;;;;6.85;4.65;;;11.20;99.90;;;;;;4901211;28;89887;-31
2023/03/23 03:21:59;;;;;;;9.73;5.25;;;11.20;99.90;;;;;;4900175;28;87644;-28
2023/03/23 03:24:28;;;;;;;4.23;3.83;;;11.20;99.90;;;;;;4900334;28;90377;-32
2023/03/23 03:26:57;;;;;;;6.65;4.80;;;11.20;99.90;;;;;;4900254;28;89728;-29
2023/03/23 03:29:45;;;;;;;7.38;4.68;;;11.20;99.90;;;;;;4903342;28;89080;-32
2023/03/23 03:32:19;;;;;;;7.18;4.03;;;11.20;99.90;;;;;;4903470;28;88154;-32
2023/03/23 03:34:45;;;;;;;4.55;3.97;;;11.20;99.90;;;;;;4903375;28;90025;-31
2023/03/23 03:37:11;;;;;;;7.63;4.40;;;11.20;99.90;;;;;;4903554;28;89867;-31
2023/03/23 03:39:37;;;;;;;7.57;5.15;;;11.30;99.90;;;;;;4904287;28;88063;-30
2023/03/23 03:42:07;;;;;;;9.40;4.55;;;11.30;99.90;;;;;;4903432;28;89127;-28
2023/03/23 03:44:33;;;;;;;5.00;4.20;;;11.30;99.90;;;;;;4903223;28;89060;-29
2023/03/23 03:46:59;;;;;;;6.65;5.30;;;11.30;99.90;;;;;;4903629;28;89110;-32
2023/03/23 03:49:25;;;;;;;5.10;4.60;;;11.30;99.90;;;;;;4903469;28;90287;-30
2023/03/23 03:51:51;;;;;;;6.80;5.75;;;11.30;99.90;;;;;;4903327;28;89202;-32
2023/03/23 03:54:16;;;;;;;6.90;5.00;;;11.30;99.90;;;;;;4902372;28;88941;-31
2023/03/23 03:56:42;;;;;;;8.20;5.05;;;11.40;99.90;;;;;;4902586;28;90252;-32
2023/03/23 03:59:09;;;;;;;5.28;4.78;;;11.40;99.90;;;;;;4903397;28;90753;-29
2023/03/23 04:01:36;;;;;;;6.05;4.57;;;11.40;99.90;;;;;;4904081;28;88536;-31
2023/03/23 04:04:04;;;;;;;7.95;4.45;;;11.40;99.90;;;;;;4902801;28;90044;-32
2023/03/23 04:06:30;;;;;;;6.78;4.38;;;11.40;99.90;;;;;;4903287;28;89770;-32
2023/03/23 04:08:58;;;;;;;7.22;5.32;;;11.50;99.90;;;;;;4903450;28;89307;-31
2023/03/23 04:11:25;;;;;;;6.43;5.50;;;11.50;99.90;;;;;;4903823;28;87960;-29
2023/03/23 04:13:51;;;;;;;5.10;4.65;;;11.50;99.90;;;;;;4902429;28;90312;-32
2023/03/23 04:16:17;;;;;;;6.05;5.00;;;11.50;99.90;;;;;;4903963;28;89599;-29
2023/03/23 04:18:43;;;;;;;9.00;5.38;;;11.50;99.90;;;;;;4902988;28;89776;-30
2023/03/23 04:21:09;;;;;;;4.97;4.55;;;11.50;99.90;;;;;;4902836;28;89683;-31
2023/03/23 04:23:36;;;;;;;6.32;5.13;;;11.50;99.90;;;;;;4903409;28;90316;-31
2023/03/23 04:26:03;;;;;;;5.72;5.15;;;11.50;99.90;;;;;;4902799;28;88853;-34
2023/03/23 04:28:29;;;;;;;5.93;5.40;;;11.50;99.90;;;;;;4902580;28;89775;-30
2023/03/23 04:30:55;;;;;;;6.30;4.90;;;11.40;99.90;;;;;;4903349;28;89083;-29
2023/03/23 04:33:26;;;;;;;7.00;5.57;;;11.50;99.90;;;;;;4902748;28;90184;-32
2023/03/23 04:35:56;;;;;;;9.05;5.32;;;11.50;99.90;;;;;;4903133;28;90037;-31
2023/03/23 04:38:24;;;;;;;8.10;4.68;;;11.40;99.90;;;;;;4903624;28;89334;-30
2023/03/23 04:40:51;;;;;;;7.57;5.33;;;11.40;99.90;;;;;;4901572;28;89249;-32
2023/03/23 04:43:22;;;;;;;7.70;5.33;;;11.40;99.90;;;;;;4902406;28;90766;-31
2023/03/23 04:45:58;;;;;;;6.30;5.45;;;11.40;99.90;;;;;;4902344;28;90690;-32
2023/03/23 04:48:29;;;;;;;7.43;4.68;;;11.40;99.90;;;;;;4902432;28;91112;-30
2023/03/23 04:50:55;;;;;;;6.20;5.55;;;11.50;99.90;;;;;;4901700;28;89197;-33
2023/03/23 04:53:22;;;;;;;5.50;4.38;;;11.50;99.90;;;;;;4902723;28;90429;-30
2023/03/23 04:55:48;;;;;;;5.03;4.53;;;11.50;99.90;;;;;;4902575;28;89601;-30
2023/03/23 04:58:15;;;;;;;10.45;6.32;;;11.50;99.90;;;;;;4902585;28;89582;-29
2023/03/23 05:00:43;;;;;;;8.15;5.30;;;11.50;99.90;;;;;;4902938;28;89629;-32
2023/03/23 05:03:09;;;;;;;7.80;5.47;;;11.60;99.90;;;;;;4903116;28;89751;-28
2023/03/23 05:05:35;;;;;;;7.25;5.07;;;11.60;99.90;;;;;;4902324;28;89542;-31
2023/03/23 05:08:01;;;;;;;5.72;4.78;;;11.50;99.90;;;;;;4902287;28;89006;-30
2023/03/23 05:10:27;;;;;;;8.13;4.97;;;11.50;99.90;;;;;;4904068;28;90428;-31
2023/03/23 05:12:54;;;;;;;9.07;5.90;;;11.50;99.90;;;;;;4920820;28;89813;-32
2023/03/23 05:15:20;;;;;;;8.80;4.85;;;11.50;99.90;;;;;;4921531;28;89810;-29
2023/03/23 05:17:45;;;;;;;8.15;6.40;;;11.50;99.90;;;;;;4920975;28;89556;-30
2023/03/23 05:20:14;;;;;;;10.05;7.10;;;11.40;99.90;;;;;;4921823;28;89130;-32
2023/03/23 05:22:40;;;;;;;6.15;3.45;;;11.30;99.90;;;;;;4921781;28;90538;-31
2023/03/23 05:25:10;;;;;;;6.07;2.92;;;10.90;99.90;;;;;;4919968;28;89347;-30
2023/03/23 05:27:43;;;;;;;5.10;2.90;;;10.70;99.90;;;;;;4921696;28;90224;-29
2023/03/23 05:30:09;;;;;;;3.00;2.42;;;10.60;99.90;;;;;;4921793;28;89161;-31
2023/03/23 05:32:37;;;;;;;3.53;3.22;;;10.50;99.90;;;;;;4921156;28;90375;-33
2023/03/23 05:35:03;;;;;;;4.27;2.50;;;10.40;99.90;;;;;;4920477;28;90249;-32
2023/03/23 05:37:32;;;;;;;4.95;3.25;;;10.40;99.90;;;;;;4921115;28;90509;-34
2023/03/23 05:40:04;;;;;;;7.40;3.53;;;10.40;99.90;;;;;;4921040;28;89026;-30
2023/03/23 05:42:30;;;;;;;6.45;3.30;;;10.30;99.90;;;;;;4919314;28;89229;-30
2023/03/23 05:44:56;;;;;;;4.32;3.33;;;10.30;99.90;;;;;;4921212;28;90332;-30
2023/03/23 05:47:21;;;;;;;5.25;2.97;;;10.30;99.90;;;;;;4921265;28;89631;-30
2023/03/23 05:49:47;;;;;;;6.00;3.28;;;10.30;99.90;;;;;;4921185;28;89306;-30
2023/03/23 05:52:13;;;;;;;4.30;3.38;;;10.30;99.90;;;;;;4921169;28;90265;-29
2023/03/23 05:54:38;;;;;;;5.00;3.08;;;10.40;99.90;;;;;;4920240;28;90123;-33
2023/03/23 05:57:05;;;;;;;6.55;3.40;;;10.40;99.90;;;;;;4922201;28;87521;-31
2023/03/23 05:59:31;;;;;;;9.23;3.67;;;10.40;99.90;;;;;;4920579;28;90524;-28
2023/03/23 06:01:57;;;;;;;3.65;2.42;;;10.40;99.90;;;;;;4921337;28;88911;-31
2023/03/23 06:04:24;;;;;;;9.65;4.95;;;10.40;99.90;;;;;;4920944;28;90050;-30
2023/03/23 06:06:54;;;;;;;5.20;2.88;;;10.40;99.90;;;;;;4920587;28;89333;-31
2023/03/23 06:09:20;;;;;;;10.27;3.28;;;10.50;99.90;;;;;;4920452;28;89013;-32
2023/03/23 06:11:47;;;;;;;6.35;3.40;;;10.50;99.90;;;;;;4920448;28;89858;-31
2023/03/23 06:14:13;;;;;;;8.70;2.85;;;10.50;99.90;;;;;;4920890;28;89813;-31
2023/03/23 06:16:38;;;;;;;6.50;3.83;;;10.40;99.90;;;;;;4920583;28;89939;-28
2023/03/23 06:19:04;;;;;;;7.97;3.17;;;10.40;99.90;;;;;;4920875;28;89152;-30
2023/03/23 06:21:31;;;;;;;7.90;3.75;;;10.40;99.90;;;;;;4920029;28;90247;-28
2023/03/23 06:23:59;;;;;;;6.88;3.22;;;10.40;99.90;;;;;;4919549;28;89719;-28
2023/03/23 06:26:31;;;;;;;5.90;2.63;;;10.40;99.90;;;;;;4921181;28;91373;-28
2023/03/23 06:28:57;;;;;;;5.90;3.65;;;10.40;99.90;;;;;;4920411;28;89653;-30
2023/03/23 06:31:24;;;;;;;4.13;3.20;;;10.40;99.90;;;;;;4920866;28;89238;-33
2023/03/23 06:33:50;;;;;;;5.93;3.22;;;10.40;99.90;;;;;;4920280;28;89737;-28
2023/03/23 06:36:16;;;;;;;3.05;2.75;;;10.50;99.90;;;;;;4919555;28;89878;-32
2023/03/23 06:38:42;;;;;;;6.15;3.25;;;10.50;99.90;;;;;;4920718;28;89889;-29
2023/03/23 06:41:08;;;;;;;6.05;3.47;;;10.50;99.90;;;;;;4920847;28;90215;-32
2023/03/23 06:43:35;;;;;;;3.95;2.60;;;10.50;99.90;;;;;;4918479;28;90005;-30
2023/03/23 06:46:01;;;;;;;4.30;2.65;;;10.50;99.90;;;;;;4920143;28;89176;-29
2023/03/23 06:48:28;;;;;;;5.47;3.83;;;10.50;99.90;;;;;;4918475;28;89876;-30
2023/03/23 06:50:53;;;;;;;9.93;3.38;;;10.60;99.90;;;;;;4919707;28;89713;-31
2023/03/23 06:53:20;;;;;;;7.72;3.13;;;10.60;99.90;;;;;;4920341;28;91120;-31
2023/03/23 06:55:46;;;;;;;6.35;3.08;;;10.60;99.90;;;;;;4919524;28;89236;-32
2023/03/23 06:58:12;;;;;;;9.30;3.60;;;10.60;99.90;;;;;;4920464;28;89930;-31
2023/03/23 07:00:38;;;;;;;8.80;3.13;;;10.60;99.90;;;;;;4919563;28;89474;-28
2023/03/23 07:03:04;;;;;;;10.10;3.83;;;10.70;99.90;;;;;;4911577;28;90151;-29
2023/03/23 07:05:30;;;;;;;6.32;3.35;;;10.70;99.90;;;;;;4918601;28;89820;-32
2023/03/23 07:07:55;;;;;;;10.80;3.72;;;10.70;99.90;;;;;;4921608;28;88592;-32
2023/03/23 07:10:21;;;;;;;6.43;3.40;;;10.70;99.90;;;;;;4921522;28;89998;-29
2023/03/23 07:12:47;;;;;;;7.15;3.67;;;10.70;99.90;;;;;;4920297;28;90476;-29
2023/03/23 07:15:13;;;;;;;5.97;3.65;;;10.70;99.90;;;;;;4921476;28;90159;-32
2023/03/23 07:17:40;;;;;;;4.93;3.15;;;10.70;99.90;;;;;;4921782;28;88333;-33
2023/03/23 07:20:07;;;;;;;5.28;4.00;;;10.70;99.90;;;;;;4901630;28;89914;-33
2023/03/23 07:22:33;;;;;;;8.50;4.55;;;10.80;99.90;;;;;;4901412;28;89284;-32
2023/03/23 07:24:59;;;;;;;10.02;3.95;;;10.80;99.90;;;;;;4901962;28;89308;-31
2023/03/23 07:27:25;;;;;;;10.27;4.45;;;10.80;99.90;;;;;;4900538;28;89308;-28
2023/03/23 07:29:51;;;;;;;4.75;3.85;;;10.80;99.90;;;;;;4901959;28;90774;-29
2023/03/23 07:32:17;;;;;;;8.98;3.80;;;10.80;99.90;;;;;;4901627;28;89611;-30
2023/03/23 07:34:43;;;;;;;11.43;3.92;;;10.90;99.90;;;;;;4901010;28;90577;-32
2023/03/23 07:37:09;;;;;;;11.45;5.22;;;10.90;99.90;;;;;;4901987;28;90485;-27
2023/03/23 07:39:35;;;;;;;7.75;3.70;;;10.90;99.90;;;;;;4901537;28;91796;-31
2023/03/23 07:42:01;;;;;;;6.10;3.45;;;10.90;99.90;;;;;;4901329;28;88611;-31
2023/03/23 07:44:27;;;;;;;12.80;4.78;;;11.00;99.90;;;;;;4901251;28;89426;-29
2023/03/23 07:46:53;;;;;;;6.40;3.88;;;11.00;99.90;;;;;;4900812;28;88296;-32
2023/03/23 07:49:19;;;;;;;12.55;4.53;;;11.00;99.90;;;;;;4901595;28;90424;-29
2023/03/23 07:51:45;;;;;;;10.02;4.60;;;11.10;99.90;;;;;;4901371;28;90462;-28
2023/03/23 07:54:11;;;;;;;8.20;5.60;;;11.10;99.90;;;;;;4900842;28;89154;-28
2023/03/23 07:56:41;;;;;;;13.73;4.85;;;11.20;99.90;;;;;;4901544;28;88663;-31
2023/03/23 07:59:07;;;;;;;6.38;3.95;;;11.30;99.90;;;;;;4901989;28;89842;-32
2023/03/23 08:01:33;;;;;;;9.93;4.22;;;11.30;99.90;;;;;;4916322;28;90215;-31
2023/03/23 08:03:59;;;;;;;9.02;4.50;;;11.40;99.90;;;;;;4920942;28;89334;-31
2023/03/23 08:06:25;;;;;;;9.90;5.10;;;11.50;99.90;;;;;;4921312;28;89867;-32
2023/03/23 08:08:51;;;;;;;5.35;3.95;;;11.50;99.90;;;;;;4919759;28;89033;-28
2023/03/23 08:11:18;;;;;;;4.47;4.07;;;11.50;99.90;;;;;;4920689;28;89558;-29
2023/03/23 08:13:44;;;;;;;10.93;5.13;;;11.40;99.90;;;;;;4920119;28;90617;-29
2023/03/23 08:16:10;;;;;;;12.23;4.55;;;11.50;99.90;;;;;;4920750;28;89580;-29
2023/03/23 08:18:37;;;;;;;13.52;4.85;;;11.50;99.90;;;;;;4919274;28;89681;-32
2023/03/23 08:21:08;;;;;;;9.13;3.60;;;11.50;99.90;;;;;;4919407;28;88359;-31
2023/03/23 08:23:35;;;;;;;5.55;4.32;;;11.50;99.90;;;;;;4920371;28;89821;-29
2023/03/23 08:26:00;;;;;;;10.52;4.18;;;11.60;99.90;;;;;;4919468;28;89526;-30
2023/03/23 08:28:26;;;;;;;14.95;4.78;;;11.50;99.90;;;;;;4920218;28;89650;-31
2023/03/23 08:30:52;;;;;;;7.03;4.07;;;11.60;99.90;;;;;;4919721;28;89942;-30
2023/03/23 08:33:17;;;;;;;13.18;4.80;;;11.70;99.90;;;;;;4919333;28;89165;-32
2023/03/23 08:35:44;;;;;;;11.88;3.70;;;11.80;99.90;;;;;;4920745;28;89165;-32
2023/03/23 08:38:11;;;;;;;5.55;4.43;;;11.80;99.90;;;;;;4918679;28;90685;-33
2023/03/23 08:40:37;;;;;;;8.93;4.22;;;11.80;99.90;;;;;;4919254;28;90044;-30
2023/03/23 08:43:02;;;;;;;18.77;5.50;;;11.90;99.90;;;;;;4919635;28;89689;-29
2023/03/23 08:45:28;;;;;;;8.27;4.07;;;11.90;99.90;;;;;;4920243;28;89176;-31
2023/03/23 08:47:55;;;;;;;10.45;4.85;;;11.90;99.90;;;;;;4919847;28;90180;-30
2023/03/23 08:50:24;;;;;;;12.20;4.70;;;11.90;99.90;;;;;;4919614;28;90861;-33
2023/03/23 08:52:50;;;;;;;12.68;5.00;;;11.90;99.90;;;;;;4919283;28;90008;-30
2023/03/23 08:55:17;;;;;;;10.38;5.63;;;11.80;99.90;;;;;;4918822;28;88879;-33
2023/03/23 08:57:43;;;;;;;15.82;5.78;;;11.70;99.90;;;;;;4919840;28;90206;-29
2023/03/23 09:00:17;;;;;;;13.15;6.03;;;11.70;99.90;;;;;;4919864;28;89631;-30
2023/03/23 09:02:49;;;;;;;26.50;5.28;;;11.70;99.90;;;;;;4920348;28;89368;-32
2023/03/23 09:05:19;;;;;;;13.13;5.40;;;11.70;99.90;;;;;;4919900;28;88514;-30
2023/03/23 09:07:49;;;;;;;21.60;5.18;;;11.80;99.90;;;;;;4919090;28;89794;-28
2023/03/23 09:10:15;;;;;;;11.95;5.53;;;11.90;99.90;;;;;;4918925;28;90289;-30
2023/03/23 09:12:42;;;;;;;20.95;6.97;;;12.00;99.90;;;;;;4919542;28;89647;-29
2023/03/23 09:15:11;;;;;;;10.85;5.47;;;12.10;99.90;;;;;;4919683;28;88982;-29
2023/03/23 09:17:40;;;;;;;15.30;5.13;;;12.20;99.90;;;;;;4919662;28;89726;-31
2023/03/23 09:20:14;;;;;;;11.25;6.03;;;12.20;99.90;;;;;;4919545;28;89434;-31
2023/03/23 09:22:42;;;;;;;7.00;5.28;;;12.20;99.90;;;;;;4919071;28;89562;-32
2023/03/23 09:25:10;;;;;;;12.10;5.47;;;12.10;99.90;;;;;;4919130;28;89323;-32
2023/03/23 09:27:36;;;;;;;11.38;5.80;;;12.10;99.90;;;;;;4919522;28;89812;-33
2023/03/23 09:30:10;;;;;;;9.43;5.88;;;12.10;99.90;;;;;;4919001;28;89753;-34
2023/03/23 09:32:36;;;;;;;17.45;5.03;;;12.10;99.90;;;;;;4919469;28;89202;-33
2023/03/23 09:35:04;;;;;;;12.82;4.82;;;12.10;99.90;;;;;;4918574;28;87667;-33
2023/03/23 09:37:31;;;;;;;10.47;5.70;;;12.00;99.90;;;;;;4918447;28;90480;-34
2023/03/23 09:39:56;;;;;;;11.70;5.55;;;12.00;99.90;;;;;;4919100;28;90782;-29
2023/03/23 09:42:29;;;;;;;9.85;5.32;;;12.00;99.90;;;;;;4919062;28;90270;-32
2023/03/23 09:45:04;;;;;;;7.43;4.50;;;12.00;99.90;;;;;;4919240;28;88737;-31
2023/03/23 09:48:07;;;;;;;14.90;4.40;;;12.20;99.90;;;;;;4918830;28;90138;-31
2023/03/23 09:50:35;;;;;;;12.35;4.97;;;12.70;99.90;;;;;;4919547;28;90192;-33
2023/03/23 09:53:22;;;;;;;12.67;6.00;;;13.30;99.90;;;;;;4918360;28;89062;-29
2023/03/23 09:55:49;;;;;;;9.63;5.38;;;13.50;99.90;;;;;;4917765;28;89789;-33
2023/03/23 09:58:25;;;;;;;10.82;5.22;;;13.90;99.90;;;;;;4918731;28;90233;-31
2023/03/23 10:01:10;;;;;;;15.25;4.93;;;14.00;99.90;;;;;;4918793;28;89687;-33
2023/03/23 10:03:44;;;;;;;13.90;5.32;;;13.80;99.90;;;;;;4918268;28;89653;-31
2023/03/23 10:06:12;;;;;;;9.32;4.75;;;13.70;99.90;;;;;;4917926;28;90510;-31
2023/03/23 10:08:44;;;;;;;9.32;4.63;;;13.80;99.90;;;;;;4919155;28;89871;-33
2023/03/23 10:11:25;;;;;;;10.48;5.50;;;13.60;99.90;;;;;;4918672;28;89977;-32
2023/03/23 10:14:08;;;;;;;8.10;4.15;;;13.50;99.90;;;;;;4918100;28;89038;-30
2023/03/23 10:17:01;;;;;;;16.27;5.53;;;13.30;99.90;;;;;;4919314;28;89392;-30
2023/03/23 10:19:36;;;;;;;7.85;4.47;;;13.30;99.90;;;;;;4918225;28;90239;-31
2023/03/23 10:22:08;;;;;;;13.75;5.03;;;13.40;99.90;;;;;;4918498;28;90156;-33
2023/03/23 10:24:41;;;;;;;16.73;5.13;;;13.50;99.90;;;;;;4918261;28;89526;-34
2023/03/23 10:27:34;;;;;;;12.00;4.85;;;13.50;99.90;;;;;;4918356;28;88260;-31
2023/03/23 10:30:27;;;;;;;12.00;4.65;;;13.90;99.90;;;;;;4891590;28;90584;-34
2023/03/23 10:32:56;;;;;;;6.85;4.38;;;14.20;99.90;;;;;;4911822;28;90294;-32
2023/03/23 10:35:31;;;;;;;5.45;4.72;;;14.40;99.90;;;;;;4917986;28;89967;-33
2023/03/23 10:38:01;;;;;;;7.15;4.10;;;14.70;99.90;;;;;;4919195;28;88222;-32
2023/03/23 10:40:29;;;;;;;7.72;4.10;;;14.50;99.90;;;;;;4921824;28;90381;-32
2023/03/23 10:42:57;;;;;;;8.27;4.70;;;14.30;99.90;;;;;;4922483;28;89234;-30
2023/03/23 10:45:29;;;;;;;13.20;4.15;;;14.60;99.90;;;;;;4922308;28;89334;-32
2023/03/23 10:48:21;;;;;;;5.55;3.60;;;14.90;99.90;;;;;;4921869;28;89644;-34
2023/03/23 10:50:54;;;;;;;6.63;3.92;;;15.00;99.90;;;;;;4921408;28;90200;-33
2023/03/23 10:53:28;;;;;;;5.68;3.08;;;14.70;99.90;;;;;;4922179;28;89271;-34
2023/03/23 10:55:54;;;;;;;12.80;4.25;;;14.30;99.90;;;;;;4921193;28;89575;-31
2023/03/23 10:58:29;;;;;;;8.15;4.43;;;14.20;99.90;;;;;;4921468;28;90210;-33
2023/03/23 11:00:55;;;;;;;9.30;4.00;;;14.10;99.90;;;;;;4921316;28;89565;-31
2023/03/23 11:03:24;;;;;;;5.15;3.53;;;14.10;99.90;;;;;;4921463;28;89436;-34
2023/03/23 11:06:05;;;;;;;8.07;3.67;;;14.00;99.90;;;;;;4921504;28;89738;-31
2023/03/23 11:08:35;;;;;;;6.93;3.80;;;14.00;99.90;;;;;;4921203;28;89256;-33
2023/03/23 11:11:24;;;;;;;3.42;2.97;;;14.10;99.90;;;;;;4921309;28;89750;-31
2023/03/23 11:13:57;;;;;;;14.52;3.90;;;14.20;99.90;;;;;;4920524;28;89568;-31
2023/03/23 11:16:31;;;;;;;7.40;4.10;;;14.20;99.90;;;;;;4922243;28;89434;-32
2023/03/23 11:18:59;;;;;;;5.55;3.05;;;14.20;99.90;;;;;;4921247;28;88815;-33
2023/03/23 11:21:27;;;;;;;6.00;2.60;;;14.20;99.90;;;;;;4921575;28;90629;-32
2023/03/23 11:23:58;;;;;;;6.85;3.97;;;14.20;99.90;;;;;;4920883;28;90543;-31
2023/03/23 11:26:33;;;;;;;12.13;4.53;;;14.10;99.90;;;;;;4921042;28;91431;-31
2023/03/23 11:29:05;;;;;;;7.25;3.00;;;14.10;99.90;;;;;;4921798;28;90068;-30
2023/03/23 11:31:38;;;;;;;10.73;3.70;;;14.20;99.90;;;;;;4921442;28;90310;-29
2023/03/23 11:34:18;;;;;;;7.43;3.50;;;14.50;99.90;;;;;;4920372;28;89821;-34
2023/03/23 11:37:00;;;;;;;6.05;3.58;;;14.80;99.90;;;;;;4920465;28;89583;-32
2023/03/23 11:39:31;;;;;;;4.25;2.85;;;14.70;99.90;;;;;;4921171;28;89292;-31
2023/03/23 11:41:59;;;;;;;7.22;3.50;;;14.50;99.90;;;;;;4921250;28;89139;-31
2023/03/23 11:44:31;;;;;;;;;;;14.40;99.90;;;;;;4920734;28;89967;-34
2023/03/23 11:47:22;;;;;;;4.07;2.85;;;14.60;99.90;;;;;;4922526;28;88843;-31
2023/03/23 11:49:55;;;;;;;3.80;2.42;;;15.00;99.90;;;;;;4920400;28;90576;-30
2023/03/23 11:52:32;;;;;;;4.63;3.42;;;15.20;99.90;;;;;;4920351;28;91771;-32
2023/03/23 11:55:14;;;;;;;5.45;3.17;;;15.20;99.90;;;;;;4966152;22;89872;-33
2023/03/23 11:57:40;;;;;;;7.57;2.95;;;15.10;99.90;;;;;;4939470;28;90487;-32
2023/03/23 12:00:20;;;;;;;8.30;3.00;;;14.80;99.90;;;;;;4940005;28;88818;-33
2023/03/23 12:03:25;;;;;;;6.50;3.40;;;14.60;99.90;;;;;;4940327;28;89804;-30
2023/03/23 12:06:03;;;;;;;10.68;3.45;;;14.70;99.90;;;;;;4939831;28;89279;-30
2023/03/23 12:08:50;;;;;;;7.28;3.70;;;14.90;99.90;;;;;;4941341;28;90208;-30
2023/03/23 12:11:30;;;;;;;6.97;2.67;;;15.10;99.90;;;;;;4940294;28;88493;-31
2023/03/23 12:14:16;;;;;;;5.47;2.88;;;15.30;99.90;;;;;;4939868;28;90347;-32
2023/03/23 12:17:07;;;;;;;7.03;3.53;;;15.40;99.90;;;;;;4921783;28;89741;-34
2023/03/23 12:19:50;;;;;;;8.02;4.32;;;15.50;99.90;;;;;;4940736;28;91147;-31
2023/03/23 12:22:54;;;;;;;5.97;3.97;;;15.30;99.90;;;;;;4939719;28;89692;-33
2023/03/23 12:25:29;;;;;;;3.05;2.58;;;15.10;99.90;;;;;;4939936;28;90989;-33
2023/03/23 12:28:27;;;;;;;11.73;3.63;;;14.80;99.90;;;;;;4940073;28;89531;-32
2023/03/23 12:31:17;;;;;;;8.50;3.40;;;14.70;99.90;;;;;;4939893;28;90482;-31
2023/03/23 12:34:00;;;;;;;8.27;3.35;;;14.70;99.90;;;;;;4939691;28;89368;-33
2023/03/23 12:36:45;;;;;;;10.35;4.20;;;14.70;99.90;;;;;;4939950;28;89141;-31
2023/03/23 12:39:29;;;;;;;5.57;3.95;;;14.70;99.90;;;;;;4922543;28;90066;-32
2023/03/23 12:42:01;;;;;;;7.40;3.55;;;14.60;99.90;;;;;;4939105;28;89417;-32
2023/03/23 12:44:42;;;;;;;6.32;3.38;;;14.60;99.90;;;;;;4939459;28;90508;-28
2023/03/23 12:47:17;;;;;;;16.70;5.38;;;14.50;99.90;;;;;;4939639;28;91347;-33
2023/03/23 12:49:54;;;;;;;9.77;3.78;;;14.60;99.90;;;;;;4939567;28;90138;-32
2023/03/23 12:52:23;;;;;;;10.93;4.05;;;14.50;99.90;;;;;;4938868;28;89153;-31
2023/03/23 12:55:19;;;;;;;8.52;3.58;;;14.30;99.90;;;;;;4939112;28;89830;-32
2023/03/23 12:57:55;;;;;;;5.40;3.05;;;14.30;99.90;;;;;;4939483;28;90000;-33
2023/03/23 13:00:23;;;;;;;9.40;3.72;;;14.30;99.90;;;;;;4938369;28;89625;-34
2023/03/23 13:03:04;;;;;;;11.43;4.43;;;14.40;99.90;;;;;;4939512;28;89407;-30
2023/03/23 13:05:54;;;;;;;8.65;3.92;;;14.50;99.90;;;;;;4939562;28;89337;-34